sensor_id;sensor_type;location;lat;lon;timestamp;temperature;humidity
30148;DHT22;16960;49.404;8.248;2022-07-23T00:02:22;27.40;47.30
30148;DHT22;16960;49.404;8.248;2022-07-23T00:04:49;27.40;47.20
30148;DHT22;16960;49.404;8.248;2022-07-23T00:07:18;27.40;47.20
30148;DHT22;16960;49.404;8.248;2022-07-23T00:09:45;27.30;47.30
30148;DHT22;16960;49.404;8.248;2022-07-23T00:12:12;27.30;47.40
30148;DHT22;16960;49.404;8.248;2022-07-23T00:14:39;27.30;47.30
30148;DHT22;16960;49.404;8.248;2022-07-23T00:17:06;27.30;47.50
30148;DHT22;16960;49.404;8.248;2022-07-23T00:19:33;27.30;47.30
30148;DHT22;16960;49.404;8.248;2022-07-23T00:22:00;27.20;47.30
30148;DHT22;16960;49.404;8.248;2022-07-23T00:24:28;27.20;47.20
30148;DHT22;16960;49.404;8.248;2022-07-23T00:26:55;27.20;47.20
30148;DHT22;16960;49.404;8.248;2022-07-23T00:29:22;27.20;47.20
30148;DHT22;16960;49.404;8.248;2022-07-23T00:31:49;27.10;47.20
30148;DHT22;16960;49.404;8.248;2022-07-23T00:34:16;27.10;47.20
30148;DHT22;16960;49.404;8.248;2022-07-23T00:36:43;27.10;47.30
30148;DHT22;16960;49.404;8.248;2022-07-23T00:39:10;27.10;47.40
30148;DHT22;16960;49.404;8.248;2022-07-23T00:41:38;27.10;47.40
30148;DHT22;16960;49.404;8.248;2022-07-23T00:44:16;27.10;47.50
30148;DHT22;16960;49.404;8.248;2022-07-23T00:46:47;27.00;47.60
30148;DHT22;16960;49.404;8.248;2022-07-23T00:49:14;27.00;47.80
30148;DHT22;16960;49.404;8.248;2022-07-23T00:51:42;27.00;47.90
30148;DHT22;16960;49.404;8.248;2022-07-23T00:54:09;27.00;47.90
30148;DHT22;16960;49.404;8.248;2022-07-23T00:56:38;27.00;48.00
30148;DHT22;16960;49.404;8.248;2022-07-23T00:59:06;27.00;48.00
30148;DHT22;16960;49.404;8.248;2022-07-23T01:01:33;27.00;48.10
30148;DHT22;16960;49.404;8.248;2022-07-23T01:04:00;27.00;48.10
30148;DHT22;16960;49.404;8.248;2022-07-23T01:06:27;27.00;48.10
30148;DHT22;16960;49.404;8.248;2022-07-23T01:08:55;27.00;48.20
30148;DHT22;16960;49.404;8.248;2022-07-23T01:11:23;27.00;48.20
30148;DHT22;16960;49.404;8.248;2022-07-23T01:13:52;26.90;47.60
30148;DHT22;16960;49.404;8.248;2022-07-23T01:16:19;26.90;47.60
30148;DHT22;16960;49.404;8.248;2022-07-23T01:18:46;26.90;47.50
30148;DHT22;16960;49.404;8.248;2022-07-23T01:21:14;26.90;47.60
30148;DHT22;16960;49.404;8.248;2022-07-23T01:23:45;26.90;47.70
30148;DHT22;16960;49.404;8.248;2022-07-23T01:26:12;26.90;48.30
30148;DHT22;16960;49.404;8.248;2022-07-23T01:28:41;26.90;47.70
30148;DHT22;16960;49.404;8.248;2022-07-23T01:31:08;26.90;47.70
30148;DHT22;16960;49.404;8.248;2022-07-23T01:33:35;26.90;47.70
30148;DHT22;16960;49.404;8.248;2022-07-23T01:36:02;26.90;47.70
30148;DHT22;16960;49.404;8.248;2022-07-23T01:38:29;26.90;47.70
30148;DHT22;16960;49.404;8.248;2022-07-23T01:40:57;26.90;47.70
30148;DHT22;16960;49.404;8.248;2022-07-23T01:43:24;26.80;47.70
30148;DHT22;16960;49.404;8.248;2022-07-23T01:45:51;26.90;47.70
30148;DHT22;16960;49.404;8.248;2022-07-23T01:48:18;26.80;47.70
30148;DHT22;16960;49.404;8.248;2022-07-23T01:50:46;26.80;47.80
30148;DHT22;16960;49.404;8.248;2022-07-23T01:53:13;26.80;47.80
30148;DHT22;16960;49.404;8.248;2022-07-23T01:55:41;26.80;47.90
30148;DHT22;16960;49.404;8.248;2022-07-23T01:58:09;26.80;47.90
30148;DHT22;16960;49.404;8.248;2022-07-23T02:00:36;26.80;47.90
30148;DHT22;16960;49.404;8.248;2022-07-23T02:03:03;26.80;47.80
30148;DHT22;16960;49.404;8.248;2022-07-23T02:05:30;26.80;48.20
30148;DHT22;16960;49.404;8.248;2022-07-23T02:07:58;26.80;47.80
30148;DHT22;16960;49.404;8.248;2022-07-23T02:10:25;26.70;47.80
30148;DHT22;16960;49.404;8.248;2022-07-23T02:12:52;26.70;47.90
30148;DHT22;16960;49.404;8.248;2022-07-23T02:15:21;26.70;47.90
30148;DHT22;16960;49.404;8.248;2022-07-23T02:17:48;26.70;48.00
30148;DHT22;16960;49.404;8.248;2022-07-23T02:20:15;26.70;48.00
30148;DHT22;16960;49.404;8.248;2022-07-23T02:22:42;26.70;48.10
30148;DHT22;16960;49.404;8.248;2022-07-23T02:25:09;26.70;48.00
30148;DHT22;16960;49.404;8.248;2022-07-23T02:27:36;26.60;48.10
30148;DHT22;16960;49.404;8.248;2022-07-23T02:30:04;26.60;48.00
30148;DHT22;16960;49.404;8.248;2022-07-23T02:32:33;26.70;48.00
30148;DHT22;16960;49.404;8.248;2022-07-23T02:35:00;26.60;48.10
30148;DHT22;16960;49.404;8.248;2022-07-23T02:37:27;26.70;48.20
30148;DHT22;16960;49.404;8.248;2022-07-23T02:39:54;26.60;48.30
30148;DHT22;16960;49.404;8.248;2022-07-23T02:42:21;26.60;48.40
30148;DHT22;16960;49.404;8.248;2022-07-23T02:44:49;26.60;48.50
30148;DHT22;16960;49.404;8.248;2022-07-23T02:47:16;26.60;48.50
30148;DHT22;16960;49.404;8.248;2022-07-23T02:49:45;26.60;48.60
30148;DHT22;16960;49.404;8.248;2022-07-23T02:52:12;26.60;48.70
30148;DHT22;16960;49.404;8.248;2022-07-23T02:54:39;26.60;48.80
30148;DHT22;16960;49.404;8.248;2022-07-23T02:57:06;26.50;48.80
30148;DHT22;16960;49.404;8.248;2022-07-23T02:59:32;26.60;48.90
30148;DHT22;16960;49.404;8.248;2022-07-23T03:01:59;26.50;48.90
30148;DHT22;16960;49.404;8.248;2022-07-23T03:04:26;26.50;48.90
30148;DHT22;16960;49.404;8.248;2022-07-23T03:06:55;26.50;48.80
30148;DHT22;16960;49.404;8.248;2022-07-23T03:09:22;26.50;48.90
30148;DHT22;16960;49.404;8.248;2022-07-23T03:11:48;26.50;48.90
30148;DHT22;16960;49.404;8.248;2022-07-23T03:14:15;26.50;48.90
30148;DHT22;16960;49.404;8.248;2022-07-23T03:16:42;26.50;48.90
30148;DHT22;16960;49.404;8.248;2022-07-23T03:19:10;26.50;48.90
30148;DHT22;16960;49.404;8.248;2022-07-23T03:21:37;26.40;49.00
30148;DHT22;16960;49.404;8.248;2022-07-23T03:24:08;26.40;49.10
30148;DHT22;16960;49.404;8.248;2022-07-23T03:26:35;26.40;49.20
30148;DHT22;16960;49.404;8.248;2022-07-23T03:29:02;26.40;49.40
30148;DHT22;16960;49.404;8.248;2022-07-23T03:31:30;26.40;49.40
30148;DHT22;16960;49.404;8.248;2022-07-23T03:33:57;26.40;49.50
30148;DHT22;16960;49.404;8.248;2022-07-23T03:36:24;26.40;50.30
30148;DHT22;16960;49.404;8.248;2022-07-23T03:38:51;26.40;49.90
30148;DHT22;16960;49.404;8.248;2022-07-23T03:41:20;26.40;50.10
30148;DHT22;16960;49.404;8.248;2022-07-23T03:43:47;26.30;50.20
30148;DHT22;16960;49.404;8.248;2022-07-23T03:46:14;26.30;50.30
30148;DHT22;16960;49.404;8.248;2022-07-23T03:48:41;26.30;50.40
30148;DHT22;16960;49.404;8.248;2022-07-23T03:51:08;26.30;50.50
30148;DHT22;16960;49.404;8.248;2022-07-23T03:53:35;26.30;50.50
30148;DHT22;16960;49.404;8.248;2022-07-23T03:56:02;26.30;50.60
30148;DHT22;16960;49.404;8.248;2022-07-23T03:58:30;26.30;50.80
30148;DHT22;16960;49.404;8.248;2022-07-23T04:00:57;26.30;51.00
30148;DHT22;16960;49.404;8.248;2022-07-23T04:03:24;26.30;51.10
30148;DHT22;16960;49.404;8.248;2022-07-23T04:05:51;26.20;51.80
30148;DHT22;16960;49.404;8.248;2022-07-23T04:08:18;26.20;52.50
30148;DHT22;16960;49.404;8.248;2022-07-23T04:10:45;26.20;52.80
30148;DHT22;16960;49.404;8.248;2022-07-23T04:13:12;26.20;53.10
30148;DHT22;16960;49.404;8.248;2022-07-23T04:15:40;26.20;52.80
30148;DHT22;16960;49.404;8.248;2022-07-23T04:18:07;26.20;52.90
30148;DHT22;16960;49.404;8.248;2022-07-23T04:20:34;26.20;52.70
30148;DHT22;16960;49.404;8.248;2022-07-23T04:23:01;26.20;52.90
30148;DHT22;16960;49.404;8.248;2022-07-23T04:25:28;26.20;53.10
30148;DHT22;16960;49.404;8.248;2022-07-23T04:27:55;26.10;53.20
30148;DHT22;16960;49.404;8.248;2022-07-23T04:30:22;26.20;53.30
30148;DHT22;16960;49.404;8.248;2022-07-23T04:32:50;26.10;53.30
30148;DHT22;16960;49.404;8.248;2022-07-23T04:35:17;26.10;53.30
30148;DHT22;16960;49.404;8.248;2022-07-23T04:37:44;26.10;53.40
30148;DHT22;16960;49.404;8.248;2022-07-23T04:40:12;26.10;53.50
30148;DHT22;16960;49.404;8.248;2022-07-23T04:42:39;26.10;53.80
30148;DHT22;16960;49.404;8.248;2022-07-23T04:45:07;26.10;53.90
30148;DHT22;16960;49.404;8.248;2022-07-23T04:47:34;26.00;54.00
30148;DHT22;16960;49.404;8.248;2022-07-23T04:50:03;26.00;53.80
30148;DHT22;16960;49.404;8.248;2022-07-23T04:52:30;26.00;54.00
30148;DHT22;16960;49.404;8.248;2022-07-23T04:54:56;26.00;53.90
30148;DHT22;16960;49.404;8.248;2022-07-23T04:57:24;26.00;53.80
30148;DHT22;16960;49.404;8.248;2022-07-23T04:59:51;26.00;53.90
30148;DHT22;16960;49.404;8.248;2022-07-23T05:02:18;26.00;53.90
30148;DHT22;16960;49.404;8.248;2022-07-23T05:04:45;26.00;54.10
30148;DHT22;16960;49.404;8.248;2022-07-23T05:07:13;26.00;53.90
30148;DHT22;16960;49.404;8.248;2022-07-23T05:09:40;26.00;53.80
30148;DHT22;16960;49.404;8.248;2022-07-23T05:12:08;26.00;53.80
30148;DHT22;16960;49.404;8.248;2022-07-23T05:14:35;26.00;53.70
30148;DHT22;16960;49.404;8.248;2022-07-23T05:17:02;26.00;54.00
30148;DHT22;16960;49.404;8.248;2022-07-23T05:19:29;26.00;54.00
30148;DHT22;16960;49.404;8.248;2022-07-23T05:21:56;26.00;54.10
30148;DHT22;16960;49.404;8.248;2022-07-23T05:24:24;26.00;54.00
30148;DHT22;16960;49.404;8.248;2022-07-23T05:26:51;26.00;53.90
30148;DHT22;16960;49.404;8.248;2022-07-23T05:29:18;26.00;53.70
30148;DHT22;16960;49.404;8.248;2022-07-23T05:31:45;26.00;53.90
30148;DHT22;16960;49.404;8.248;2022-07-23T05:34:12;26.00;53.80
30148;DHT22;16960;49.404;8.248;2022-07-23T05:36:40;26.00;53.70
30148;DHT22;16960;49.404;8.248;2022-07-23T05:39:07;26.00;53.70
30148;DHT22;16960;49.404;8.248;2022-07-23T05:41:35;26.00;53.70
30148;DHT22;16960;49.404;8.248;2022-07-23T05:44:02;26.00;53.80
30148;DHT22;16960;49.404;8.248;2022-07-23T05:46:29;26.00;54.00
30148;DHT22;16960;49.404;8.248;2022-07-23T05:48:56;26.00;54.00
30148;DHT22;16960;49.404;8.248;2022-07-23T05:51:24;26.00;54.20
30148;DHT22;16960;49.404;8.248;2022-07-23T05:53:51;26.00;54.50
30148;DHT22;16960;49.404;8.248;2022-07-23T05:56:19;26.00;54.80
30148;DHT22;16960;49.404;8.248;2022-07-23T05:58:47;26.00;55.20
30148;DHT22;16960;49.404;8.248;2022-07-23T06:01:14;26.00;55.20
30148;DHT22;16960;49.404;8.248;2022-07-23T06:03:41;26.00;55.20
30148;DHT22;16960;49.404;8.248;2022-07-23T06:06:08;26.00;55.30
30148;DHT22;16960;49.404;8.248;2022-07-23T06:08:35;25.90;55.10
30148;DHT22;16960;49.404;8.248;2022-07-23T06:11:02;25.90;55.10
30148;DHT22;16960;49.404;8.248;2022-07-23T06:13:29;25.90;55.30
30148;DHT22;16960;49.404;8.248;2022-07-23T06:15:57;25.90;55.90
30148;DHT22;16960;49.404;8.248;2022-07-23T06:18:24;25.90;56.60
30148;DHT22;16960;49.404;8.248;2022-07-23T06:20:51;25.90;56.60
30148;DHT22;16960;49.404;8.248;2022-07-23T06:23:18;25.80;57.00
30148;DHT22;16960;49.404;8.248;2022-07-23T06:25:45;25.80;57.20
30148;DHT22;16960;49.404;8.248;2022-07-23T06:28:12;25.70;56.70
30148;DHT22;16960;49.404;8.248;2022-07-23T06:30:39;25.70;56.40
30148;DHT22;16960;49.404;8.248;2022-07-23T06:33:07;25.70;56.30
30148;DHT22;16960;49.404;8.248;2022-07-23T06:35:35;25.70;56.30
30148;DHT22;16960;49.404;8.248;2022-07-23T06:38:02;25.70;56.00
30148;DHT22;16960;49.404;8.248;2022-07-23T06:40:29;25.70;56.00
30148;DHT22;16960;49.404;8.248;2022-07-23T06:42:56;25.70;56.20
30148;DHT22;16960;49.404;8.248;2022-07-23T06:45:23;25.70;56.10
30148;DHT22;16960;49.404;8.248;2022-07-23T06:47:50;25.70;57.00
30148;DHT22;16960;49.404;8.248;2022-07-23T06:50:18;25.70;56.20
30148;DHT22;16960;49.404;8.248;2022-07-23T06:52:45;25.70;56.30
30148;DHT22;16960;49.404;8.248;2022-07-23T06:55:12;25.70;56.40
30148;DHT22;16960;49.404;8.248;2022-07-23T06:57:39;25.70;56.50
30148;DHT22;16960;49.404;8.248;2022-07-23T07:00:07;25.70;56.50
30148;DHT22;16960;49.404;8.248;2022-07-23T07:02:34;25.70;56.70
30148;DHT22;16960;49.404;8.248;2022-07-23T07:05:01;25.70;56.70
30148;DHT22;16960;49.404;8.248;2022-07-23T07:07:30;25.70;56.50
30148;DHT22;16960;49.404;8.248;2022-07-23T07:09:58;25.70;56.60
30148;DHT22;16960;49.404;8.248;2022-07-23T07:12:25;25.70;56.60
30148;DHT22;16960;49.404;8.248;2022-07-23T07:14:52;25.70;56.40
30148;DHT22;16960;49.404;8.248;2022-07-23T07:17:19;25.70;56.50
30148;DHT22;16960;49.404;8.248;2022-07-23T07:19:46;25.70;56.70
30148;DHT22;16960;49.404;8.248;2022-07-23T07:22:13;25.70;56.80
30148;DHT22;16960;49.404;8.248;2022-07-23T07:24:41;25.70;56.70
30148;DHT22;16960;49.404;8.248;2022-07-23T07:27:08;25.70;56.60
30148;DHT22;16960;49.404;8.248;2022-07-23T07:29:35;25.70;56.60
30148;DHT22;16960;49.404;8.248;2022-07-23T07:32:02;25.60;56.60
30148;DHT22;16960;49.404;8.248;2022-07-23T07:34:29;25.60;56.60
30148;DHT22;16960;49.404;8.248;2022-07-23T07:36:56;25.60;56.70
30148;DHT22;16960;49.404;8.248;2022-07-23T07:39:23;25.60;56.60
30148;DHT22;16960;49.404;8.248;2022-07-23T07:41:52;25.60;56.60
30148;DHT22;16960;49.404;8.248;2022-07-23T07:44:19;25.60;57.00
30148;DHT22;16960;49.404;8.248;2022-07-23T07:46:46;25.60;56.40
30148;DHT22;16960;49.404;8.248;2022-07-23T07:49:13;25.60;56.50
30148;DHT22;16960;49.404;8.248;2022-07-23T07:51:40;25.60;56.50
30148;DHT22;16960;49.404;8.248;2022-07-23T07:54:07;25.60;56.50
30148;DHT22;16960;49.404;8.248;2022-07-23T07:56:34;25.60;56.50
30148;DHT22;16960;49.404;8.248;2022-07-23T07:59:02;25.60;56.50
30148;DHT22;16960;49.404;8.248;2022-07-23T08:01:29;25.60;56.60
30148;DHT22;16960;49.404;8.248;2022-07-23T08:03:56;25.60;56.70
30148;DHT22;16960;49.404;8.248;2022-07-23T08:06:23;25.60;56.60
30148;DHT22;16960;49.404;8.248;2022-07-23T08:08:50;25.60;56.50
30148;DHT22;16960;49.404;8.248;2022-07-23T08:11:17;25.60;56.60
30148;DHT22;16960;49.404;8.248;2022-07-23T08:13:44;25.60;56.90
30148;DHT22;16960;49.404;8.248;2022-07-23T08:16:12;25.60;56.70
30148;DHT22;16960;49.404;8.248;2022-07-23T08:18:39;25.60;56.70
30148;DHT22;16960;49.404;8.248;2022-07-23T08:21:06;25.60;57.00
30148;DHT22;16960;49.404;8.248;2022-07-23T08:23:33;25.60;56.90
30148;DHT22;16960;49.404;8.248;2022-07-23T08:26:01;25.70;56.90
30148;DHT22;16960;49.404;8.248;2022-07-23T08:28:28;25.60;56.80
30148;DHT22;16960;49.404;8.248;2022-07-23T08:30:59;25.60;56.70
30148;DHT22;16960;49.404;8.248;2022-07-23T08:33:27;25.70;56.80
30148;DHT22;16960;49.404;8.248;2022-07-23T08:35:54;25.70;57.20
30148;DHT22;16960;49.404;8.248;2022-07-23T08:38:22;25.70;56.90
30148;DHT22;16960;49.404;8.248;2022-07-23T08:40:53;25.70;56.90
30148;DHT22;16960;49.404;8.248;2022-07-23T08:43:22;25.70;57.10
30148;DHT22;16960;49.404;8.248;2022-07-23T08:45:50;25.70;56.80
30148;DHT22;16960;49.404;8.248;2022-07-23T08:48:19;25.70;56.70
30148;DHT22;16960;49.404;8.248;2022-07-23T08:50:50;25.70;56.50
30148;DHT22;16960;49.404;8.248;2022-07-23T08:53:18;25.70;56.60
30148;DHT22;16960;49.404;8.248;2022-07-23T08:55:47;25.70;56.60
30148;DHT22;16960;49.404;8.248;2022-07-23T08:58:15;25.80;56.80
30148;DHT22;16960;49.404;8.248;2022-07-23T09:00:42;25.70;56.70
30148;DHT22;16960;49.404;8.248;2022-07-23T09:03:16;25.80;56.60
30148;DHT22;16960;49.404;8.248;2022-07-23T09:05:43;25.80;56.60
30148;DHT22;16960;49.404;8.248;2022-07-23T09:08:13;25.80;56.60
30148;DHT22;16960;49.404;8.248;2022-07-23T09:10:45;25.80;56.40
30148;DHT22;16960;49.404;8.248;2022-07-23T09:13:30;25.90;56.20
30148;DHT22;16960;49.404;8.248;2022-07-23T09:15:59;25.90;56.10
30148;DHT22;16960;49.404;8.248;2022-07-23T09:18:30;25.90;56.30
30148;DHT22;16960;49.404;8.248;2022-07-23T09:21:09;25.90;56.10
30148;DHT22;16960;49.404;8.248;2022-07-23T09:23:42;25.90;56.00
30148;DHT22;16960;49.404;8.248;2022-07-23T09:26:23;25.90;55.70
30148;DHT22;16960;49.404;8.248;2022-07-23T09:28:55;26.00;56.20
30148;DHT22;16960;49.404;8.248;2022-07-23T09:31:23;26.00;56.00
30148;DHT22;16960;49.404;8.248;2022-07-23T09:33:51;26.00;55.90
30148;DHT22;16960;49.404;8.248;2022-07-23T09:36:28;26.00;55.80
30148;DHT22;16960;49.404;8.248;2022-07-23T09:38:56;26.10;55.60
30148;DHT22;16960;49.404;8.248;2022-07-23T09:41:23;26.10;55.50
30148;DHT22;16960;49.404;8.248;2022-07-23T09:43:55;26.10;55.30
30148;DHT22;16960;49.404;8.248;2022-07-23T09:46:24;26.10;55.30
30148;DHT22;16960;49.404;8.248;2022-07-23T09:48:52;26.10;55.10
30148;DHT22;16960;49.404;8.248;2022-07-23T09:51:20;26.10;55.00
30148;DHT22;16960;49.404;8.248;2022-07-23T09:53:55;26.20;55.00
30148;DHT22;16960;49.404;8.248;2022-07-23T09:56:22;26.10;54.90
30148;DHT22;16960;49.404;8.248;2022-07-23T09:58:50;26.20;54.80
30148;DHT22;16960;49.404;8.248;2022-07-23T10:01:27;26.20;54.80
30148;DHT22;16960;49.404;8.248;2022-07-23T10:03:55;26.20;54.70
30148;DHT22;16960;49.404;8.248;2022-07-23T10:06:22;26.20;54.60
30148;DHT22;16960;49.404;8.248;2022-07-23T10:08:51;26.20;54.60
30148;DHT22;16960;49.404;8.248;2022-07-23T10:11:21;26.20;54.50
30148;DHT22;16960;49.404;8.248;2022-07-23T10:13:48;26.30;54.40
30148;DHT22;16960;49.404;8.248;2022-07-23T10:16:20;26.30;54.30
30148;DHT22;16960;49.404;8.248;2022-07-23T10:18:47;26.30;54.30
30148;DHT22;16960;49.404;8.248;2022-07-23T10:21:20;26.30;54.20
30148;DHT22;16960;49.404;8.248;2022-07-23T10:24:01;26.30;54.20
30148;DHT22;16960;49.404;8.248;2022-07-23T10:26:36;26.30;54.10
30148;DHT22;16960;49.404;8.248;2022-07-23T10:29:12;26.30;54.00
30148;DHT22;16960;49.404;8.248;2022-07-23T10:31:54;26.30;54.00
30148;DHT22;16960;49.404;8.248;2022-07-23T10:34:30;26.30;54.00
30148;DHT22;16960;49.404;8.248;2022-07-23T10:37:10;26.40;53.90
30148;DHT22;16960;49.404;8.248;2022-07-23T10:39:39;26.30;53.80
30148;DHT22;16960;49.404;8.248;2022-07-23T10:42:12;26.40;53.70
30148;DHT22;16960;49.404;8.248;2022-07-23T10:44:41;26.40;53.70
30148;DHT22;16960;49.404;8.248;2022-07-23T10:47:10;26.40;53.60
30148;DHT22;16960;49.404;8.248;2022-07-23T10:49:54;26.40;53.60
30148;DHT22;16960;49.404;8.248;2022-07-23T10:52:41;26.50;53.50
30148;DHT22;16960;49.404;8.248;2022-07-23T10:55:40;26.50;53.50
30148;DHT22;16960;49.404;8.248;2022-07-23T10:58:08;26.50;53.40
30148;DHT22;16960;49.404;8.248;2022-07-23T11:00:36;26.50;53.40
30148;DHT22;16960;49.404;8.248;2022-07-23T11:03:32;26.50;53.30
30148;DHT22;16960;49.404;8.248;2022-07-23T11:06:02;26.50;53.30
30148;DHT22;16960;49.404;8.248;2022-07-23T11:08:29;26.60;53.20
30148;DHT22;16960;49.404;8.248;2022-07-23T11:11:09;26.50;53.30
30148;DHT22;16960;49.404;8.248;2022-07-23T11:13:46;26.60;53.20
30148;DHT22;16960;49.404;8.248;2022-07-23T11:16:20;26.60;53.20
30148;DHT22;16960;49.404;8.248;2022-07-23T11:18:59;26.60;53.20
30148;DHT22;16960;49.404;8.248;2022-07-23T11:21:46;26.60;53.10
30148;DHT22;16960;49.404;8.248;2022-07-23T11:24:16;26.70;53.80
30148;DHT22;16960;49.404;8.248;2022-07-23T11:27:01;26.70;53.10
30148;DHT22;16960;49.404;8.248;2022-07-23T11:29:47;26.70;53.10
30148;DHT22;16960;49.404;8.248;2022-07-23T11:32:35;26.70;53.10
30148;DHT22;16960;49.404;8.248;2022-07-23T11:35:19;26.70;53.00
30148;DHT22;16960;49.404;8.248;2022-07-23T11:37:47;26.70;53.00
30148;DHT22;16960;49.404;8.248;2022-07-23T11:40:16;26.80;52.90
30148;DHT22;16960;49.404;8.248;2022-07-23T11:42:58;26.80;52.90
30148;DHT22;16960;49.404;8.248;2022-07-23T11:45:33;26.80;52.80
30148;DHT22;16960;49.404;8.248;2022-07-23T11:48:01;26.80;53.10
30148;DHT22;16960;49.404;8.248;2022-07-23T11:50:28;26.80;53.00
30148;DHT22;16960;49.404;8.248;2022-07-23T11:52:55;26.90;52.90
30148;DHT22;16960;49.404;8.248;2022-07-23T11:55:22;26.90;52.80
30148;DHT22;16960;49.404;8.248;2022-07-23T11:57:51;26.90;52.80
30148;DHT22;16960;49.404;8.248;2022-07-23T12:00:20;26.90;52.80
30148;DHT22;16960;49.404;8.248;2022-07-23T12:02:50;27.00;53.30
30148;DHT22;16960;49.404;8.248;2022-07-23T12:05:19;27.00;53.20
30148;DHT22;16960;49.404;8.248;2022-07-23T12:07:47;27.00;53.10
30148;DHT22;16960;49.404;8.248;2022-07-23T12:10:17;27.00;53.00
30148;DHT22;16960;49.404;8.248;2022-07-23T12:12:47;27.10;53.00
30148;DHT22;16960;49.404;8.248;2022-07-23T12:15:16;27.10;52.90
30148;DHT22;16960;49.404;8.248;2022-07-23T12:17:45;27.10;52.80
30148;DHT22;16960;49.404;8.248;2022-07-23T12:20:15;27.20;52.70
30148;DHT22;16960;49.404;8.248;2022-07-23T12:22:44;27.20;52.70
30148;DHT22;16960;49.404;8.248;2022-07-23T12:25:14;27.20;52.60
30148;DHT22;16960;49.404;8.248;2022-07-23T12:27:42;27.20;52.50
30148;DHT22;16960;49.404;8.248;2022-07-23T12:30:17;27.20;52.40
30148;DHT22;16960;49.404;8.248;2022-07-23T12:32:46;27.20;52.40
30148;DHT22;16960;49.404;8.248;2022-07-23T12:35:14;27.30;52.30
30148;DHT22;16960;49.404;8.248;2022-07-23T12:37:43;27.40;52.30
30148;DHT22;16960;49.404;8.248;2022-07-23T12:40:25;27.30;52.20
30148;DHT22;16960;49.404;8.248;2022-07-23T12:42:55;27.40;52.10
30148;DHT22;16960;49.404;8.248;2022-07-23T12:45:23;27.50;52.00
30148;DHT22;16960;49.404;8.248;2022-07-23T12:47:59;27.40;51.90
30148;DHT22;16960;49.404;8.248;2022-07-23T12:50:40;27.50;51.90
30148;DHT22;16960;49.404;8.248;2022-07-23T12:53:13;27.50;51.80
30148;DHT22;16960;49.404;8.248;2022-07-23T12:55:42;27.50;51.80
30148;DHT22;16960;49.404;8.248;2022-07-23T12:58:13;27.50;51.80
30148;DHT22;16960;49.404;8.248;2022-07-23T13:00:59;27.50;51.80
30148;DHT22;16960;49.404;8.248;2022-07-23T13:03:36;27.60;51.60
30148;DHT22;16960;49.404;8.248;2022-07-23T13:06:07;27.60;51.60
30148;DHT22;16960;49.404;8.248;2022-07-23T13:08:36;27.60;51.50
30148;DHT22;16960;49.404;8.248;2022-07-23T13:11:04;27.70;51.50
30148;DHT22;16960;49.404;8.248;2022-07-23T13:13:33;27.70;51.50
30148;DHT22;16960;49.404;8.248;2022-07-23T13:16:01;27.70;51.50
30148;DHT22;16960;49.404;8.248;2022-07-23T13:18:28;27.70;51.40
30148;DHT22;16960;49.404;8.248;2022-07-23T13:20:55;27.70;51.40
30148;DHT22;16960;49.404;8.248;2022-07-23T13:23:24;27.70;51.30
30148;DHT22;16960;49.404;8.248;2022-07-23T13:25:51;27.70;51.30
30148;DHT22;16960;49.404;8.248;2022-07-23T13:28:20;27.70;51.20
30148;DHT22;16960;49.404;8.248;2022-07-23T13:30:49;27.70;51.20
30148;DHT22;16960;49.404;8.248;2022-07-23T13:33:17;27.70;51.20
30148;DHT22;16960;49.404;8.248;2022-07-23T13:35:44;27.70;51.20
30148;DHT22;16960;49.404;8.248;2022-07-23T13:38:12;27.80;51.10
30148;DHT22;16960;49.404;8.248;2022-07-23T13:40:43;27.80;51.10
30148;DHT22;16960;49.404;8.248;2022-07-23T13:43:13;27.80;51.10
30148;DHT22;16960;49.404;8.248;2022-07-23T13:45:41;27.80;51.00
30148;DHT22;16960;49.404;8.248;2022-07-23T13:48:10;27.80;51.00
30148;DHT22;16960;49.404;8.248;2022-07-23T13:50:38;27.80;50.90
30148;DHT22;16960;49.404;8.248;2022-07-23T13:53:06;27.80;50.90
30148;DHT22;16960;49.404;8.248;2022-07-23T13:55:33;27.80;50.90
30148;DHT22;16960;49.404;8.248;2022-07-23T13:58:02;27.80;50.80
30148;DHT22;16960;49.404;8.248;2022-07-23T14:00:30;27.80;51.00
30148;DHT22;16960;49.404;8.248;2022-07-23T14:02:57;27.90;50.90
30148;DHT22;16960;49.404;8.248;2022-07-23T14:05:25;27.90;50.90
30148;DHT22;16960;49.404;8.248;2022-07-23T14:07:53;27.90;51.00
30148;DHT22;16960;49.404;8.248;2022-07-23T14:10:21;27.90;51.00
30148;DHT22;16960;49.404;8.248;2022-07-23T14:12:49;27.90;51.00
30148;DHT22;16960;49.404;8.248;2022-07-23T14:15:18;27.90;51.00
30148;DHT22;16960;49.404;8.248;2022-07-23T14:17:45;27.90;51.00
30148;DHT22;16960;49.404;8.248;2022-07-23T14:20:14;28.00;51.50
30148;DHT22;16960;49.404;8.248;2022-07-23T14:22:41;28.00;51.50
30148;DHT22;16960;49.404;8.248;2022-07-23T14:25:09;28.00;51.40
30148;DHT22;16960;49.404;8.248;2022-07-23T14:27:36;28.10;51.40
30148;DHT22;16960;49.404;8.248;2022-07-23T14:30:05;28.10;51.40
30148;DHT22;16960;49.404;8.248;2022-07-23T14:32:34;28.10;51.30
30148;DHT22;16960;49.404;8.248;2022-07-23T14:35:01;28.10;51.30
30148;DHT22;16960;49.404;8.248;2022-07-23T14:37:29;28.10;51.30
30148;DHT22;16960;49.404;8.248;2022-07-23T14:39:56;28.10;51.20
30148;DHT22;16960;49.404;8.248;2022-07-23T14:42:23;28.20;51.10
30148;DHT22;16960;49.404;8.248;2022-07-23T14:44:50;28.20;51.10
30148;DHT22;16960;49.404;8.248;2022-07-23T14:47:17;28.20;51.10
30148;DHT22;16960;49.404;8.248;2022-07-23T14:49:45;28.20;51.00
30148;DHT22;16960;49.404;8.248;2022-07-23T14:52:12;28.30;51.00
30148;DHT22;16960;49.404;8.248;2022-07-23T14:54:39;28.30;51.00
30148;DHT22;16960;49.404;8.248;2022-07-23T14:57:06;28.30;50.90
30148;DHT22;16960;49.404;8.248;2022-07-23T14:59:35;28.30;50.90
30148;DHT22;16960;49.404;8.248;2022-07-23T15:02:02;28.30;50.90
30148;DHT22;16960;49.404;8.248;2022-07-23T15:04:29;28.30;50.90
30148;DHT22;16960;49.404;8.248;2022-07-23T15:06:58;28.40;50.80
30148;DHT22;16960;49.404;8.248;2022-07-23T15:09:25;28.40;50.70
30148;DHT22;16960;49.404;8.248;2022-07-23T15:11:52;28.40;50.70
30148;DHT22;16960;49.404;8.248;2022-07-23T15:14:19;28.40;50.70
30148;DHT22;16960;49.404;8.248;2022-07-23T15:16:46;28.40;50.80
30148;DHT22;16960;49.404;8.248;2022-07-23T15:19:12;28.40;50.70
30148;DHT22;16960;49.404;8.248;2022-07-23T15:21:40;28.40;50.60
30148;DHT22;16960;49.404;8.248;2022-07-23T15:24:08;28.50;50.50
30148;DHT22;16960;49.404;8.248;2022-07-23T15:26:36;28.50;50.60
30148;DHT22;16960;49.404;8.248;2022-07-23T15:29:03;28.50;50.60
30148;DHT22;16960;49.404;8.248;2022-07-23T15:31:31;28.50;50.40
30148;DHT22;16960;49.404;8.248;2022-07-23T15:33:58;28.50;50.40
30148;DHT22;16960;49.404;8.248;2022-07-23T15:36:25;28.60;50.40
30148;DHT22;16960;49.404;8.248;2022-07-23T15:38:52;28.60;50.30
30148;DHT22;16960;49.404;8.248;2022-07-23T15:41:21;28.60;50.30